createdAt,value
2023-08-21T00:01:36.056Z,84.35
2023-08-21T00:04:04.276Z,84.40
2023-08-21T00:06:34.356Z,84.45
2023-08-21T00:09:03.548Z,84.54
2023-08-21T00:11:31.697Z,84.37
2023-08-21T00:14:00.160Z,84.21
2023-08-21T00:16:29.838Z,84.76
2023-08-21T00:18:58.310Z,84.62
2023-08-21T00:21:26.508Z,84.43
2023-08-21T00:23:56.173Z,84.39
2023-08-21T00:26:24.376Z,84.19
2023-08-21T00:28:52.454Z,84.41
2023-08-21T00:31:20.651Z,84.27
2023-08-21T00:33:48.800Z,84.27
2023-08-21T00:36:17.026Z,84.32
2023-08-21T00:38:45.139Z,84.57
2023-08-21T00:41:14.639Z,84.64
2023-08-21T00:43:42.938Z,84.29
2023-08-21T00:46:11.287Z,84.31
2023-08-21T00:48:40.422Z,84.50
2023-08-21T00:51:09.135Z,84.38
2023-08-21T00:53:37.437Z,84.25
2023-08-21T00:56:05.980Z,84.53
2023-08-21T00:58:35.582Z,84.13
2023-08-21T01:01:05.864Z,84.10
2023-08-21T01:03:34.109Z,84.34
2023-08-21T01:06:02.237Z,84.25
2023-08-21T01:08:37.872Z,84.22
2023-08-21T01:11:15.789Z,84.16
2023-08-21T01:14:01.665Z,84.10
2023-08-21T01:16:31.849Z,84.23
2023-08-21T01:19:02.224Z,84.15
2023-08-21T01:21:30.633Z,84.15
2023-08-21T01:24:00.160Z,84.24
2023-08-21T01:26:28.290Z,84.17
2023-08-21T01:28:56.595Z,84.04
2023-08-21T01:31:32.598Z,84.38
2023-08-21T01:34:06.632Z,84.25
2023-08-21T01:36:36.037Z,84.43
2023-08-21T01:39:06.017Z,84.39
2023-08-21T01:41:34.121Z,84.44
2023-08-21T01:44:02.367Z,84.27
2023-08-21T01:46:30.553Z,84.46
2023-08-21T01:48:58.750Z,84.09
2023-08-21T01:51:27.077Z,84.09
2023-08-21T01:53:55.225Z,84.34
2023-08-21T01:56:24.782Z,84.46
2023-08-21T01:58:52.994Z,83.94
2023-08-21T02:01:21.208Z,84.22
2023-08-21T02:03:49.365Z,83.93
2023-08-21T02:06:17.670Z,84.14
2023-08-21T02:08:45.766Z,84.21
2023-08-21T02:11:14.034Z,84.08
2023-08-21T02:13:43.581Z,84.13
2023-08-21T02:16:11.718Z,83.89
2023-08-21T02:18:40.084Z,83.86
2023-08-21T02:21:08.182Z,83.75
2023-08-21T02:23:36.329Z,83.88
2023-08-21T02:26:04.566Z,83.86
2023-08-21T02:28:32.862Z,83.51
2023-08-21T02:31:02.410Z,83.78
2023-08-21T02:33:30.711Z,83.61
2023-08-21T02:35:59.119Z,83.64
2023-08-21T02:38:27.365Z,83.98
2023-08-21T02:40:55.534Z,83.61
2023-08-21T02:43:23.734Z,83.61
2023-08-21T02:45:51.860Z,83.89
2023-08-21T02:48:21.405Z,83.91
2023-08-21T02:50:49.616Z,83.55
2023-08-21T02:53:17.708Z,83.70
2023-08-21T02:55:45.797Z,83.61
2023-08-21T02:58:13.958Z,83.78
2023-08-21T03:00:42.302Z,84.01
2023-08-21T03:03:10.457Z,83.99
2023-08-21T03:05:40.056Z,83.84
2023-08-21T03:08:08.864Z,83.78
2023-08-21T03:10:38.154Z,83.58
2023-08-21T03:13:06.294Z,83.87
2023-08-21T03:15:34.458Z,83.55
2023-08-21T03:18:02.602Z,83.57
2023-08-21T03:20:30.739Z,83.76
2023-08-21T03:23:00.288Z,83.88
2023-08-21T03:27:57.721Z,83.76
2023-08-21T03:30:25.826Z,83.84
2023-08-21T03:32:54.068Z,83.82
2023-08-21T03:35:22.207Z,83.51
2023-08-21T03:37:50.365Z,83.43
2023-08-21T03:40:20.127Z,83.77
2023-08-21T03:42:48.400Z,83.42
2023-08-21T03:45:16.564Z,83.59
2023-08-21T03:47:44.759Z,83.63
2023-08-21T03:50:12.898Z,83.31
2023-08-21T03:52:41.205Z,83.75
2023-08-21T03:55:09.953Z,83.41
2023-08-21T03:57:39.505Z,83.51
2023-08-21T04:00:10.448Z,83.20
2023-08-21T04:02:38.744Z,83.65
2023-08-21T04:05:07.466Z,83.50
2023-08-21T04:07:35.768Z,83.37
2023-08-21T04:10:03.883Z,83.63
2023-08-21T04:12:32.046Z,83.01
2023-08-21T04:15:01.686Z,82.76
2023-08-21T04:17:29.933Z,82.95
2023-08-21T04:19:58.098Z,83.27
2023-08-21T04:22:26.331Z,82.92
2023-08-21T04:24:54.430Z,82.94
2023-08-21T04:27:22.608Z,83.27
2023-08-21T04:29:50.699Z,82.86
2023-08-21T04:32:20.202Z,83.13
2023-08-21T04:34:48.569Z,82.79
2023-08-21T04:37:16.702Z,82.82
2023-08-21T04:39:44.957Z,82.76
2023-08-21T04:42:13.058Z,82.80
2023-08-21T04:44:41.207Z,82.68
2023-08-21T04:47:29.293Z,82.32
2023-08-21T04:49:58.049Z,82.47
2023-08-21T04:52:27.053Z,82.76
2023-08-21T04:54:55.788Z,82.38
2023-08-21T04:57:24.260Z,82.56
2023-08-21T04:59:52.469Z,82.68
2023-08-21T05:02:20.815Z,82.42
2023-08-21T05:04:50.457Z,82.69
2023-08-21T05:07:18.719Z,82.82
2023-08-21T05:09:46.881Z,82.50
2023-08-21T05:12:14.968Z,82.80
2023-08-21T05:14:43.140Z,82.36
2023-08-21T05:17:11.388Z,82.68
2023-08-21T05:19:39.582Z,82.75
2023-08-21T05:22:09.432Z,82.45
2023-08-21T05:24:37.618Z,82.49
2023-08-21T05:27:06.544Z,82.17
2023-08-21T05:29:35.883Z,82.12
2023-08-21T05:32:04.178Z,82.03
2023-08-21T05:34:32.704Z,82.35
2023-08-21T05:37:00.899Z,81.94
2023-08-21T05:39:31.048Z,82.19
2023-08-21T05:41:59.948Z,81.98
2023-08-21T05:44:28.104Z,82.01
2023-08-21T05:46:56.380Z,82.05
2023-08-21T05:49:24.633Z,82.32
2023-08-21T05:51:52.832Z,82.34
2023-08-21T05:54:21.052Z,82.14
2023-08-21T05:56:50.550Z,82.13
2023-08-21T05:59:30.309Z,81.81
2023-08-21T06:01:58.411Z,81.87
2023-08-21T06:04:28.457Z,82.03
2023-08-21T06:06:57.246Z,81.88
2023-08-21T06:09:25.362Z,82.07
2023-08-21T06:11:54.890Z,82.25
2023-08-21T06:14:29.867Z,81.94
2023-08-21T06:17:00.065Z,82.09
2023-08-21T06:19:28.533Z,81.98
2023-08-21T06:21:56.951Z,82.05
2023-08-21T06:24:25.337Z,81.87
2023-08-21T06:26:55.461Z,82.18
2023-08-21T06:29:23.599Z,82.33
2023-08-21T06:31:51.750Z,81.85
2023-08-21T06:34:19.885Z,82.10
2023-08-21T06:36:48.103Z,82.07
2023-08-21T06:39:16.490Z,82.08
2023-08-21T06:41:44.764Z,81.94
2023-08-21T06:44:14.426Z,81.91
2023-08-21T06:46:42.583Z,81.75
2023-08-21T06:49:10.746Z,81.94
2023-08-21T06:51:38.992Z,82.09
2023-08-21T06:54:07.265Z,81.58
2023-08-21T06:56:35.420Z,81.59
2023-08-21T06:59:03.761Z,81.91
2023-08-21T07:01:33.338Z,81.70
2023-08-21T07:04:01.555Z,81.75
2023-08-21T07:06:30.441Z,82.02
2023-08-21T07:08:58.793Z,81.91
2023-08-21T07:11:26.920Z,81.94
2023-08-21T07:13:55.060Z,81.65
2023-08-21T07:16:24.257Z,81.99
2023-08-21T07:18:54.235Z,81.99
2023-08-21T07:21:33.128Z,81.71
2023-08-21T07:24:03.766Z,81.62
2023-08-21T07:26:33.398Z,81.68
2023-08-21T07:29:01.556Z,81.89
2023-08-21T07:31:29.846Z,81.53
2023-08-21T07:33:59.395Z,81.80
2023-08-21T07:36:27.537Z,81.63
2023-08-21T07:38:55.699Z,81.59
2023-08-21T07:41:24.803Z,81.57
2023-08-21T07:43:55.289Z,81.22
2023-08-21T07:46:23.471Z,81.25
2023-08-21T07:48:52.060Z,81.21
2023-08-21T07:51:21.821Z,81.37
2023-08-21T07:53:49.957Z,81.42
2023-08-21T07:56:18.052Z,81.39
2023-08-21T07:58:46.412Z,81.43
2023-08-21T08:01:14.605Z,81.57
2023-08-21T08:03:42.859Z,81.45
2023-08-21T08:06:11.028Z,81.84
2023-08-21T08:08:40.903Z,81.38
2023-08-21T08:11:09.024Z,81.65
2023-08-21T08:13:37.187Z,81.83
2023-08-21T08:16:05.628Z,81.36
2023-08-21T08:18:33.804Z,81.70
2023-08-21T08:21:01.922Z,81.60
2023-08-21T08:23:30.100Z,81.47
2023-08-21T08:25:59.722Z,81.73
2023-08-21T08:28:27.847Z,81.48
2023-08-21T08:30:56.302Z,81.52
2023-08-21T08:33:24.467Z,81.63
2023-08-21T08:35:52.636Z,81.55
2023-08-21T08:38:21.712Z,81.55
2023-08-21T08:40:53.285Z,81.08
2023-08-21T08:43:24.430Z,81.50
2023-08-21T08:45:55.119Z,81.59
2023-08-21T08:48:24.065Z,81.66
2023-08-21T08:50:53.716Z,81.37
2023-08-21T08:53:22.398Z,81.40
2023-08-21T08:55:51.256Z,81.61
2023-08-21T08:58:19.368Z,81.51
2023-08-21T09:00:48.990Z,81.40
2023-08-21T09:03:17.888Z,81.42
2023-08-21T09:05:46.076Z,81.70
2023-08-21T09:08:15.392Z,81.69
2023-08-21T09:10:46.758Z,81.55
2023-08-21T09:13:15.961Z,81.50
2023-08-21T09:15:45.216Z,81.64
2023-08-21T09:18:16.075Z,81.49
2023-08-21T09:20:44.566Z,81.63
2023-08-21T09:23:16.484Z,81.31
2023-08-21T09:25:48.526Z,81.86
2023-08-21T09:28:20.572Z,81.38
2023-08-21T09:30:53.597Z,81.64
2023-08-21T09:33:24.268Z,81.32
2023-08-21T09:35:54.707Z,81.74
2023-08-21T09:38:22.897Z,81.34
2023-08-21T09:40:55.670Z,81.45
2023-08-21T09:43:24.692Z,81.54
2023-08-21T09:45:56.635Z,81.51
2023-08-21T09:48:28.626Z,81.69
2023-08-21T09:50:58.052Z,81.58
2023-08-21T09:53:26.438Z,81.50
2023-08-21T09:55:55.787Z,81.58
2023-08-21T09:58:24.650Z,81.22
2023-08-21T10:00:58.471Z,81.37
2023-08-21T10:03:29.153Z,81.18
2023-08-21T10:06:00.138Z,81.64
2023-08-21T10:08:29.872Z,81.65
2023-08-21T10:10:59.465Z,81.56
2023-08-21T10:13:29.460Z,81.61
2023-08-21T10:15:57.675Z,81.18
2023-08-21T10:18:32.264Z,81.25
2023-08-21T10:21:13.456Z,81.45
2023-08-21T10:26:13.743Z,81.39
2023-08-21T10:28:50.681Z,81.23
2023-08-21T10:31:29.236Z,81.57
2023-08-21T10:33:59.921Z,81.41
2023-08-21T10:37:11.423Z,80.87
2023-08-21T10:39:41.211Z,81.29
2023-08-21T10:42:15.277Z,81.25
2023-08-21T10:44:53.170Z,81.17
2023-08-21T10:47:22.860Z,80.97
2023-08-21T10:49:53.909Z,81.36
2023-08-21T10:52:27.083Z,81.17
2023-08-21T10:54:57.420Z,81.39
2023-08-21T10:57:26.117Z,81.18
2023-08-21T10:59:56.514Z,81.18
2023-08-21T11:02:24.933Z,81.63
2023-08-21T11:04:55.486Z,81.56
2023-08-21T11:07:23.965Z,81.43
2023-08-21T11:09:52.106Z,81.39
2023-08-21T11:12:21.922Z,81.11
2023-08-21T11:14:50.528Z,81.28
2023-08-21T11:17:19.939Z,81.31
2023-08-21T11:19:49.690Z,81.40
2023-08-21T11:22:19.645Z,81.59
2023-08-21T11:24:49.256Z,81.28
2023-08-21T11:27:20.162Z,81.53
2023-08-21T11:29:51.640Z,81.56
2023-08-21T11:32:21.306Z,81.27
2023-08-21T11:34:54.063Z,81.54
2023-08-21T11:37:25.092Z,81.47
2023-08-21T11:39:54.904Z,81.49
2023-08-21T11:42:24.647Z,81.44
2023-08-21T11:44:54.476Z,81.50
2023-08-21T11:47:24.057Z,81.27
2023-08-21T11:49:53.843Z,81.51
2023-08-21T11:52:26.745Z,81.53
2023-08-21T11:54:56.444Z,81.52
2023-08-21T11:57:24.598Z,81.34
2023-08-21T11:59:53.802Z,81.56
2023-08-21T12:02:25.906Z,81.69
2023-08-21T12:05:03.293Z,81.69
2023-08-21T12:07:32.878Z,81.73
2023-08-21T12:10:01.206Z,81.74
2023-08-21T12:12:29.350Z,81.79
2023-08-21T12:14:58.156Z,81.59
2023-08-21T12:17:26.289Z,81.74
2023-08-21T12:19:54.447Z,81.49
2023-08-21T12:22:22.591Z,81.60
2023-08-21T12:24:52.105Z,81.83
2023-08-21T12:27:21.398Z,81.44
2023-08-21T12:29:49.511Z,81.74
2023-08-21T12:32:18.313Z,81.99
2023-08-21T12:34:46.618Z,81.59
2023-08-21T12:37:17.072Z,81.71
2023-08-21T12:39:46.264Z,81.61
2023-08-21T12:42:15.804Z,81.63
2023-08-21T12:44:43.889Z,81.95
2023-08-21T12:47:12.044Z,81.73
2023-08-21T12:49:40.187Z,81.51
2023-08-21T12:52:10.467Z,81.52
2023-08-21T12:54:39.452Z,81.64
2023-08-21T12:57:08.720Z,81.50
2023-08-21T12:59:38.291Z,81.56
2023-08-21T13:02:06.833Z,81.88
2023-08-21T13:04:35.674Z,81.51
2023-08-21T13:07:04.699Z,81.37
2023-08-21T13:09:33.947Z,81.45
2023-08-21T13:12:02.196Z,81.37
2023-08-21T13:14:32.656Z,81.31
2023-08-21T13:17:02.437Z,81.37
2023-08-21T13:19:30.523Z,81.73
2023-08-21T13:21:58.660Z,81.58
2023-08-21T13:24:29.286Z,81.56
2023-08-21T13:26:57.781Z,81.76
2023-08-21T13:29:25.942Z,81.47
2023-08-21T13:31:54.101Z,81.28
2023-08-21T13:34:23.596Z,81.61
2023-08-21T13:36:51.772Z,81.21
2023-08-21T13:39:19.939Z,81.17
2023-08-21T13:41:48.073Z,81.42
2023-08-21T13:44:16.186Z,81.20
2023-08-21T13:46:44.279Z,81.47
2023-08-21T13:49:12.410Z,81.62
2023-08-21T13:51:42.199Z,81.59
2023-08-21T13:54:10.395Z,81.66
2023-08-21T13:56:38.526Z,81.59
2023-08-21T13:59:08.337Z,81.59
2023-08-21T14:01:36.510Z,81.18
2023-08-21T14:04:07.395Z,81.38
2023-08-21T14:06:35.533Z,81.11
2023-08-21T14:09:05.576Z,81.62
2023-08-21T14:11:33.743Z,81.52
2023-08-21T14:14:01.875Z,81.43
2023-08-21T14:16:30.108Z,81.73
2023-08-21T14:18:58.373Z,81.66
2023-08-21T14:21:26.520Z,81.53
2023-08-21T14:23:55.052Z,81.69
2023-08-21T14:26:24.675Z,81.49
2023-08-21T14:28:52.798Z,81.41
2023-08-21T14:31:20.916Z,81.40
2023-08-21T14:33:49.125Z,81.66
2023-08-21T14:36:17.405Z,81.75
2023-08-21T14:38:46.607Z,81.77
2023-08-21T14:41:14.731Z,81.85
2023-08-21T14:43:44.260Z,81.33
2023-08-21T14:46:13.515Z,81.66
2023-08-21T14:48:43.078Z,81.57
2023-08-21T14:51:11.240Z,81.42
2023-08-21T14:53:39.355Z,81.43
2023-08-21T14:56:07.645Z,81.85
2023-08-21T14:58:35.845Z,81.51
2023-08-21T15:01:05.652Z,81.96
2023-08-21T15:03:33.846Z,81.84
2023-08-21T15:06:02.016Z,82.02
2023-08-21T15:08:30.483Z,82.06
2023-08-21T15:10:58.590Z,81.70
2023-08-21T15:13:26.903Z,81.58
2023-08-21T15:15:55.218Z,81.46
2023-08-21T15:18:24.762Z,81.93
2023-08-21T15:20:53.163Z,81.80
2023-08-21T15:23:21.254Z,81.77
2023-08-21T15:25:49.756Z,81.99
2023-08-21T15:28:17.910Z,81.58
2023-08-21T15:30:46.221Z,81.81
2023-08-21T15:33:14.788Z,81.56
2023-08-21T15:35:44.344Z,81.88
2023-08-21T15:38:12.457Z,81.72
2023-08-21T15:40:42.753Z,82.05
2023-08-21T15:43:12.834Z,81.66
2023-08-21T15:45:40.992Z,82.02
2023-08-21T15:48:09.210Z,81.68
2023-08-21T15:50:37.452Z,81.89
2023-08-21T15:53:08.581Z,81.70
2023-08-21T15:55:37.064Z,82.03
2023-08-21T15:58:07.382Z,81.98
2023-08-21T16:00:35.580Z,81.76
2023-08-21T16:03:05.434Z,81.59
2023-08-21T16:05:33.663Z,81.81
2023-08-21T16:08:01.883Z,81.89
2023-08-21T16:10:31.545Z,82.08
2023-08-21T16:12:59.647Z,81.61
2023-08-21T16:15:27.826Z,81.77
2023-08-21T16:17:56.293Z,81.64
2023-08-21T16:20:25.541Z,81.52
2023-08-21T16:22:53.766Z,81.40
2023-08-21T16:25:22.318Z,81.69
2023-08-21T16:27:51.915Z,81.61
2023-08-21T16:30:20.382Z,81.53
2023-08-21T16:32:48.549Z,81.39
2023-08-21T16:35:16.990Z,81.71
2023-08-21T16:37:45.535Z,81.40
2023-08-21T16:40:14.227Z,81.27
2023-08-21T16:42:42.721Z,81.17
2023-08-21T16:45:15.398Z,81.11
2023-08-21T16:47:46.630Z,81.02
2023-08-21T16:50:15.442Z,81.29
2023-08-21T16:52:43.871Z,81.31
2023-08-21T16:55:12.435Z,81.02
2023-08-21T16:57:40.737Z,80.87
2023-08-21T17:00:11.260Z,81.11
2023-08-21T17:02:41.681Z,81.25
2023-08-21T17:05:11.210Z,80.89
2023-08-21T17:07:40.019Z,80.80
2023-08-21T17:10:09.352Z,80.81
2023-08-21T17:12:38.054Z,81.20
2023-08-21T17:15:08.124Z,80.94
2023-08-21T17:17:37.052Z,80.71
2023-08-21T17:20:08.412Z,80.87
2023-08-21T17:22:36.560Z,80.68
2023-08-21T17:25:14.316Z,80.95
2023-08-21T17:27:43.694Z,81.26
2023-08-21T17:30:12.959Z,81.17
2023-08-21T17:32:41.427Z,81.14
2023-08-21T17:35:11.506Z,81.36
2023-08-21T17:37:39.873Z,81.28
2023-08-21T17:40:09.805Z,81.05
2023-08-21T17:42:38.121Z,81.14
2023-08-21T17:45:07.108Z,81.20
2023-08-21T17:47:35.303Z,81.18
2023-08-21T17:50:03.752Z,81.31
2023-08-21T17:52:33.312Z,81.33
2023-08-21T17:55:02.003Z,81.24
2023-08-21T17:57:30.110Z,81.13
2023-08-21T17:59:58.337Z,81.48
2023-08-21T18:02:27.601Z,81.70
2023-08-21T18:04:56.442Z,81.53
2023-08-21T18:07:24.660Z,81.41
2023-08-21T18:09:54.642Z,81.27
2023-08-21T18:12:23.481Z,81.61
2023-08-21T18:14:51.793Z,81.64
2023-08-21T18:17:19.952Z,81.66
2023-08-21T18:19:48.315Z,81.35
2023-08-21T18:22:16.695Z,81.19
2023-08-21T18:24:44.960Z,81.43
2023-08-21T18:27:15.034Z,81.59
2023-08-21T18:29:43.172Z,81.31
2023-08-21T18:32:19.329Z,81.48
2023-08-21T18:34:47.485Z,81.62
2023-08-21T18:37:15.733Z,81.54
2023-08-21T18:39:43.994Z,81.54
2023-08-21T18:42:12.373Z,81.21
2023-08-21T18:44:42.175Z,81.23
2023-08-21T18:47:10.283Z,81.30
2023-08-21T18:49:38.665Z,81.34
2023-08-21T18:52:07.226Z,81.49
2023-08-21T18:54:35.499Z,81.43
2023-08-21T18:57:03.934Z,81.37
2023-08-21T18:59:32.765Z,81.43
2023-08-21T19:02:02.615Z,81.11
2023-08-21T19:04:33.269Z,81.40
2023-08-21T19:07:07.052Z,81.15
2023-08-21T19:09:35.941Z,81.38
2023-08-21T19:12:04.475Z,81.10
2023-08-21T19:14:32.644Z,81.27
2023-08-21T19:17:02.715Z,80.84
2023-08-21T19:19:30.837Z,80.88
2023-08-21T19:21:59.101Z,81.03
2023-08-21T19:24:27.294Z,81.01
2023-08-21T19:26:55.501Z,80.98
2023-08-21T19:29:23.683Z,81.01
2023-08-21T19:31:52.091Z,81.29
2023-08-21T19:34:23.020Z,81.03
2023-08-21T19:36:51.345Z,80.94
2023-08-21T19:39:19.529Z,81.22
2023-08-21T19:41:47.715Z,81.25
2023-08-21T19:44:15.996Z,81.08
2023-08-21T19:46:44.118Z,80.99
2023-08-21T19:49:14.546Z,81.21
2023-08-21T19:51:44.860Z,81.04
2023-08-21T19:54:13.069Z,81.00
2023-08-21T19:56:41.321Z,81.03
2023-08-21T19:59:09.772Z,81.13
2023-08-21T20:01:39.555Z,81.04
2023-08-21T20:04:07.771Z,80.67
2023-08-21T20:06:36.666Z,80.52
2023-08-21T20:09:06.345Z,80.37
2023-08-21T20:11:34.868Z,80.61
2023-08-21T20:14:03.821Z,80.59
2023-08-21T20:16:31.967Z,80.23
2023-08-21T20:19:00.182Z,80.42
2023-08-21T20:21:30.221Z,80.48
2023-08-21T20:23:59.651Z,80.51
2023-08-21T20:26:32.496Z,80.32
2023-08-21T20:29:00.760Z,80.55
2023-08-21T20:31:28.933Z,80.22
2023-08-21T20:33:57.222Z,80.23
2023-08-21T20:36:26.178Z,80.13
2023-08-21T20:38:54.795Z,80.16
2023-08-21T20:41:23.036Z,80.56
2023-08-21T20:43:52.580Z,80.17
2023-08-21T20:46:21.034Z,80.35
2023-08-21T20:48:49.181Z,80.47
2023-08-21T20:51:17.308Z,80.45
2023-08-21T20:53:45.545Z,80.30
2023-08-21T20:56:13.782Z,80.16
2023-08-21T20:58:42.025Z,80.09
2023-08-21T21:01:11.639Z,80.49
2023-08-21T21:03:40.035Z,80.63
2023-08-21T21:06:08.578Z,80.58
2023-08-21T21:08:36.725Z,80.49
2023-08-21T21:11:04.917Z,80.03
2023-08-21T21:13:33.255Z,80.10
2023-08-21T21:16:01.454Z,80.19
2023-08-21T21:18:31.201Z,80.28
2023-08-21T21:20:59.337Z,80.31
2023-08-21T21:23:27.699Z,80.27
2023-08-21T21:26:00.601Z,80.12
2023-08-21T21:28:29.146Z,79.94
2023-08-21T21:30:58.452Z,80.06
2023-08-21T21:33:28.372Z,79.84
2023-08-21T21:36:00.148Z,79.70
2023-08-21T21:38:28.435Z,79.71
2023-08-21T21:40:56.734Z,79.79
2023-08-21T21:43:25.699Z,80.08
2023-08-21T21:45:58.354Z,79.95
2023-08-21T21:48:26.727Z,79.69
2023-08-21T21:50:54.877Z,79.76
2023-08-21T21:53:28.643Z,79.50
2023-08-21T21:55:57.186Z,80.07
2023-08-21T21:58:26.527Z,80.00
2023-08-21T22:00:54.744Z,79.85
2023-08-21T22:03:22.983Z,79.96
2023-08-21T22:05:51.201Z,80.18
2023-08-21T22:08:18.692Z,79.96
2023-08-21T22:10:48.746Z,79.82
2023-08-21T22:13:17.195Z,80.02
2023-08-21T22:15:46.517Z,80.07
2023-08-21T22:18:14.879Z,80.03
2023-08-21T22:20:43.136Z,80.10
2023-08-21T22:23:11.465Z,80.02
2023-08-21T22:25:39.753Z,79.88
2023-08-21T22:28:09.725Z,80.31
2023-08-21T22:30:37.852Z,79.92
2023-08-21T22:33:06.589Z,80.18
2023-08-21T22:35:34.759Z,79.87
2023-08-21T22:38:02.882Z,79.96
2023-08-21T22:40:31.021Z,80.08
2023-08-21T22:42:59.334Z,79.82
2023-08-21T22:45:28.894Z,79.80
2023-08-21T22:47:57.181Z,79.94
2023-08-21T22:50:25.385Z,79.83
2023-08-21T22:52:53.490Z,79.87
2023-08-21T22:55:21.681Z,79.83
2023-08-21T22:57:50.050Z,79.98
2023-08-21T23:00:19.104Z,79.72
2023-08-21T23:02:48.609Z,79.91
2023-08-21T23:05:18.102Z,79.92
2023-08-21T23:07:46.328Z,79.74
2023-08-21T23:10:14.572Z,79.58
2023-08-21T23:12:43.709Z,79.63
2023-08-21T23:15:12.283Z,79.81
2023-08-21T23:17:40.669Z,79.88
2023-08-21T23:20:11.695Z,79.85
2023-08-21T23:22:40.009Z,79.79
2023-08-21T23:25:09.390Z,79.66
2023-08-21T23:27:38.004Z,79.84
2023-08-21T23:30:07.469Z,79.89
2023-08-21T23:32:35.616Z,79.64
2023-08-21T23:35:04.013Z,79.79
2023-08-21T23:37:34.177Z,79.39
2023-08-21T23:40:02.263Z,79.25
2023-08-21T23:42:30.700Z,79.10
2023-08-21T23:44:58.920Z,79.39
2023-08-21T23:47:27.249Z,78.89
2023-08-21T23:49:55.512Z,78.98
2023-08-21T23:52:23.583Z,78.87
2023-08-21T23:54:53.113Z,79.15
2023-08-21T23:57:21.838Z,78.97
2023-08-21T23:59:50.154Z,79.28
